Time;durP1;ratioP1;P1;durP2;ratioP2;P2;SDS_P1;SDS_P2;PMS_P1;PMS_P2;Temp;Humidity;BMP_temperature;BMP_pressure;BME280_temperature;BME280_humidity;BME280_pressure;Samples;Min_cycle;Max_cycle;Signal;HPM_P1;HPM_P2
2022/02/18 00:00:54;;;;;;;19.10;11.25;;;;;;;14.68;52.47;98598.91;1691010;83;21040;-68
2022/02/18 00:03:20;;;;;;;17.75;10.13;;;;;;;14.66;52.05;98615.92;1691533;84;21515;-67
2022/02/18 00:05:48;;;;;;;15.00;9.48;;;;;;;14.84;51.44;98611.63;1691455;84;21008;-73
2022/02/18 00:08:15;;;;;;;15.38;8.93;;;;;;;15.03;51.27;98622.52;1690826;84;21137;-68
2022/02/18 00:10:44;;;;;;;16.55;10.45;;;;;;;14.88;51.29;98606.67;1678177;84;21034;-73
2022/02/18 00:13:12;;;;;;;16.07;9.93;;;;;;;14.70;52.33;98608.64;1679404;83;21087;-67
2022/02/18 00:15:39;;;;;;;18.70;10.18;;;;;;;14.98;52.38;98612.00;1689955;84;20994;-68
2022/02/18 00:18:06;;;;;;;16.02;10.15;;;;;;;15.16;51.92;98604.25;1668659;83;21028;-70
2022/02/18 00:20:34;;;;;;;17.57;10.45;;;;;;;15.21;51.73;98615.56;1683857;83;22295;-70
2022/02/18 00:23:03;;;;;;;15.88;9.88;;;;;;;15.03;52.20;98611.50;1688663;84;21153;-68
2022/02/18 00:25:31;;;;;;;15.98;9.48;;;;;;;14.72;53.77;98605.23;1688117;84;21110;-68
2022/02/18 00:28:01;;;;;;;18.65;10.85;;;;;;;14.70;54.42;98602.58;1689860;84;20924;-70
2022/02/18 00:30:30;;;;;;;19.77;12.07;;;;;;;14.68;55.15;98608.09;1689289;84;27597;-69
2022/02/18 00:32:57;;;;;;;21.95;12.03;;;;;;;14.89;54.88;98601.68;1689905;84;21161;-67
2022/02/18 00:35:23;;;;;;;22.00;12.30;;;;;;;14.96;54.92;98597.02;1691061;84;21004;-66
2022/02/18 00:37:52;;;;;;;17.77;10.50;;;;;;;15.11;54.88;98596.33;1690801;84;21072;-67
2022/02/18 00:40:19;;;;;;;21.17;11.10;;;;;;;14.64;56.83;98587.34;1690513;84;20969;-69
2022/02/18 00:42:47;;;;;;;20.08;11.63;;;;;;;14.43;58.42;98589.48;1690995;84;21068;-67
2022/02/18 00:45:15;;;;;;;19.60;10.85;;;;;;;14.29;60.46;98584.66;1691338;84;21572;-67
2022/02/18 00:47:42;;;;;;;21.00;12.05;;;;;;;14.42;60.49;98585.28;1691225;84;21033;-67
2022/02/18 00:50:11;;;;;;;20.00;11.55;;;;;;;14.45;60.29;98575.61;1690901;83;21001;-71
2022/02/18 00:52:39;;;;;;;18.37;11.70;;;;;;;14.39;61.22;98575.29;1689048;83;21067;-67
2022/02/18 00:55:07;;;;;;;19.62;11.22;;;;;;;14.38;60.58;98581.05;1668070;84;21533;-67
2022/02/18 00:57:36;;;;;;;20.50;10.93;;;;;;;14.38;60.65;98578.95;1689529;84;22304;-67
2022/02/18 01:00:05;;;;;;;21.40;11.78;;;;;;;14.57;60.60;98563.95;1690132;84;21004;-66
2022/02/18 01:02:32;;;;;;;22.15;12.10;;;;;;;14.70;59.35;98563.24;1688911;83;21139;-67
2022/02/18 01:04:59;;;;;;;22.77;12.75;;;;;;;14.69;59.22;98557.73;1683511;84;22322;-67
2022/02/18 01:07:26;;;;;;;19.75;11.70;;;;;;;14.86;58.08;98560.23;1672347;84;20973;-67
2022/02/18 01:09:55;;;;;;;17.95;11.57;;;;;;;14.82;58.27;98562.05;1656039;85;21905;-69
2022/02/18 01:12:22;;;;;;;21.75;11.75;;;;;;;14.42;60.15;98569.55;1681088;83;21076;-70
2022/02/18 01:14:50;;;;;;;22.22;13.15;;;;;;;14.59;59.23;98559.25;1681065;83;21028;-67
2022/02/18 01:17:17;;;;;;;22.93;12.98;;;;;;;14.74;58.93;98549.41;1681069;85;21060;-66
2022/02/18 01:19:44;;;;;;;21.60;11.53;;;;;;;14.42;60.22;98555.14;1681115;83;21014;-66
2022/02/18 01:22:11;;;;;;;18.92;11.65;;;;;;;14.63;60.03;98556.92;1680912;83;21857;-71
2022/02/18 01:24:38;;;;;;;24.60;12.10;;;;;;;14.75;59.00;98562.77;1679985;83;21109;-70
2022/02/18 01:27:05;;;;;;;22.85;12.10;;;;;;;14.60;59.56;98553.48;1669024;83;21754;-66
2022/02/18 01:29:38;;;;;;;19.60;12.15;;;;;;;14.99;58.02;98551.91;1680921;83;21502;-66
2022/02/18 01:32:02;;;;;;;28.98;13.83;;;;;;;14.89;58.42;98545.28;1666198;85;21032;-70
2022/02/18 01:34:29;;;;;;;22.20;12.45;;;;;;;15.09;57.20;98533.61;1626124;86;21130;-66
2022/02/18 01:36:55;;;;;;;21.93;11.38;;;;;;;15.12;57.28;98534.42;1608851;89;21028;-66
2022/02/18 01:39:22;;;;;;;21.87;11.97;;;;;;;14.63;58.60;98544.34;1630249;87;21090;-66
2022/02/18 01:41:49;;;;;;;25.88;12.60;;;;;;;14.79;59.05;98531.06;1636969;86;21042;-67
2022/02/18 01:44:40;;;;;;;24.15;13.18;;;;;;;14.85;58.65;98535.84;1635940;86;21056;-70
2022/02/18 01:47:15;;;;;;;23.87;13.13;;;;;;;14.83;59.21;98536.08;1636818;86;21170;-65
2022/02/18 01:49:42;;;;;;;22.67;12.45;;;;;;;14.53;61.50;98537.17;1636579;87;21024;-65
2022/02/18 01:52:09;;;;;;;20.27;12.05;;;;;;;13.78;63.50;98533.04;1636478;87;21019;-66
2022/02/18 01:54:35;;;;;;;23.55;11.90;;;;;;;12.74;81.97;98533.80;1636317;87;21102;-66
2022/02/18 01:57:03;;;;;;;22.05;12.58;;;;;;;12.66;86.45;98535.50;1616306;87;21077;-66
2022/02/18 01:59:30;;;;;;;23.22;12.78;;;;;;;13.12;82.54;98527.79;1636712;86;21980;-67
2022/02/18 02:01:58;;;;;;;20.43;12.45;;;;;;;14.14;72.33;98520.83;1635989;86;20920;-67
2022/02/18 02:04:26;;;;;;;20.77;12.75;;;;;;;14.19;69.50;98524.80;1642874;86;21150;-67
2022/02/18 02:06:53;;;;;;;22.20;13.98;;;;;;;14.51;66.59;98521.70;1633065;86;21042;-66
2022/02/18 02:09:22;;;;;;;24.52;11.88;;;;;;;14.29;67.36;98525.69;1659106;84;21826;-67
2022/02/18 02:11:48;;;;;;;23.75;12.25;;;;;;;14.40;66.86;98513.98;1658498;85;21173;-72
2022/02/18 02:14:15;;;;;;;18.98;11.30;;;;;;;14.36;67.81;98521.03;1658708;84;21492;-66
2022/02/18 02:16:43;;;;;;;20.25;13.05;;;;;;;14.55;66.83;98529.86;1658790;86;21055;-67
2022/02/18 02:19:10;;;;;;;20.43;13.10;;;;;;;14.55;66.46;98527.23;1654913;84;21106;-67
2022/02/18 02:21:52;;;;;;;21.30;13.10;;;;;;;14.69;66.35;98531.51;1658731;86;21066;-66
2022/02/18 02:24:20;;;;;;;20.97;12.05;;;;;;;14.52;66.03;98534.28;1658471;86;21152;-72
2022/02/18 02:26:47;;;;;;;20.45;12.63;;;;;;;14.71;64.32;98524.98;1658909;86;20877;-66
2022/02/18 02:29:14;;;;;;;22.62;14.23;;;;;;;14.66;65.35;98526.77;1604696;86;21110;-65
2022/02/18 02:31:42;;;;;;;20.95;13.32;;;;;;;14.81;64.76;98525.55;1658967;86;20976;-67
2022/02/18 02:34:10;;;;;;;20.25;11.65;;;;;;;14.67;64.84;98526.53;1659710;84;21095;-65
2022/02/18 02:36:37;;;;;;;26.23;13.68;;;;;;;14.77;64.51;98525.80;1659286;86;21126;-72
2022/02/18 02:39:05;;;;;;;19.77;12.10;;;;;;;14.99;62.81;98531.70;1626021;86;21086;-66
2022/02/18 02:41:33;;;;;;;20.30;12.95;;;;;;;15.02;62.11;98536.45;1659614;86;20963;-66
2022/02/18 02:44:00;;;;;;;20.95;13.25;;;;;;;15.04;62.31;98533.06;1654882;85;20921;-71
2022/02/18 02:46:26;;;;;;;21.42;12.88;;;;;;;14.95;63.34;98523.29;1636480;86;21716;-67
2022/02/18 02:48:53;;;;;;;23.92;14.13;;;;;;;15.00;63.19;98529.37;1657646;86;21150;-66
2022/02/18 02:51:24;;;;;;;21.85;12.90;;;;;;;14.70;64.11;98528.66;1658975;84;28545;-66
2022/02/18 02:53:52;;;;;;;25.17;14.47;;;;;;;14.65;65.58;98525.98;1659897;84;21070;-72
2022/02/18 02:56:18;;;;;;;22.87;13.40;;;;;;;14.76;65.82;98525.53;1625502;84;20996;-66
2022/02/18 02:58:45;;;;;;;23.10;13.65;;;;;;;14.69;66.61;98523.13;1658380;86;21518;-65
2022/02/18 03:01:13;;;;;;;25.17;13.90;;;;;;;15.56;61.20;98527.50;1659244;86;22097;-65
2022/02/18 03:03:42;;;;;;;21.97;12.58;;;;;;;15.21;62.20;98527.63;1654896;86;20928;-66
2022/02/18 03:06:09;;;;;;;20.68;12.78;;;;;;;15.41;60.62;98543.98;1655196;86;21015;-66
2022/02/18 03:08:36;;;;;;;21.77;12.30;;;;;;;15.21;62.26;98543.38;1696834;84;20998;-69
2022/02/18 03:11:17;;;;;;;22.40;12.60;;;;;;;15.33;61.56;98545.27;1696069;83;21069;-66
2022/02/18 03:14:04;;;;;;;20.50;12.82;;;;;;;15.50;61.32;98539.05;1696232;83;21922;-71
2022/02/18 03:16:32;;;;;;;21.70;13.10;;;;;;;15.31;61.92;98536.88;1697526;84;20978;-64
2022/02/18 03:18:59;;;;;;;25.95;12.88;;;;;;;15.60;60.62;98532.50;1696155;83;20998;-65
2022/02/18 03:21:25;;;;;;;22.13;13.80;;;;;;;15.46;61.02;98537.99;1696311;83;21061;-71
2022/02/18 03:23:52;;;;;;;20.48;13.05;;;;;;;15.29;62.55;98536.85;1646095;84;21077;-66
2022/02/18 03:26:19;;;;;;;22.73;12.78;;;;;;;15.16;63.70;98538.64;1696422;83;22286;-70
2022/02/18 03:28:47;;;;;;;20.20;12.73;;;;;;;15.05;65.20;98535.16;1695808;83;21053;-67
2022/02/18 03:31:19;;;;;;;21.05;12.58;;;;;;;15.06;65.25;98536.21;1694132;84;20978;-68
2022/02/18 03:33:45;;;;;;;22.77;13.18;;;;;;;15.19;64.82;98534.17;1695731;84;21375;-67
2022/02/18 03:36:12;;;;;;;22.75;13.68;;;;;;;15.21;65.08;98539.97;1696516;84;20962;-66
2022/02/18 03:38:39;;;;;;;22.80;12.70;;;;;;;15.05;66.45;98543.03;1696271;83;21152;-64
2022/02/18 03:41:06;;;;;;;25.12;13.03;;;;;;;14.74;69.05;98541.53;1669842;84;21950;-65
2022/02/18 03:43:33;;;;;;;19.87;12.68;;;;;;;14.81;70.63;98551.78;1696420;84;21592;-67
2022/02/18 03:46:20;;;;;;;20.52;12.45;;;;;;;14.87;70.52;98553.94;1695714;83;21512;-72
2022/02/18 03:48:49;;;;;;;24.43;13.85;;;;;;;14.66;72.10;98543.31;1696077;83;21007;-64
2022/02/18 03:51:15;;;;;;;22.02;12.60;;;;;;;14.59;72.68;98554.53;1695429;83;21169;-67
2022/02/18 03:53:45;;;;;;;22.95;12.53;;;;;;;14.40;76.26;98560.64;1696388;84;22038;-64
2022/02/18 03:56:14;;;;;;;21.70;12.93;;;;;;;14.15;80.42;98549.39;1695112;84;21019;-65
2022/02/18 03:58:41;;;;;;;19.30;12.82;;;;;;;14.67;74.71;98546.73;1695224;84;21038;-65
2022/02/18 04:01:07;;;;;;;21.33;12.70;;;;;;;15.17;71.38;98547.55;1696755;81;21825;-68
2022/02/18 04:03:35;;;;;;;23.67;13.53;;;;;;;15.42;67.52;98554.78;1696759;83;21173;-65
2022/02/18 04:06:18;;;;;;;24.92;13.00;;;;;;;15.44;65.34;98553.20;1691477;83;21013;-72
2022/02/18 04:08:47;;;;;;;20.75;13.13;;;;;;;14.51;71.89;98557.62;1635887;86;21082;-69
2022/02/18 04:11:15;;;;;;;25.48;13.80;;;;;;;14.63;75.32;98556.92;1636818;87;22674;-66
2022/02/18 04:13:42;;;;;;;19.60;12.23;;;;;;;14.42;77.55;98553.83;1661598;86;20975;-64
2022/02/18 04:16:09;;;;;;;23.73;13.25;;;;;;;14.42;79.54;98553.83;1674256;84;21151;-63
2022/02/18 04:18:36;;;;;;;25.12;13.35;;;;;;;14.64;76.45;98549.31;1689614;84;21042;-68
2022/02/18 04:21:03;;;;;;;19.45;12.58;;;;;;;14.54;77.54;98547.92;1688175;84;21501;-65
2022/02/18 04:23:46;;;;;;;19.25;12.05;;;;;;;14.46;78.93;98548.35;1655044;86;21498;-65
2022/02/18 04:26:13;;;;;;;20.90;12.78;;;;;;;14.54;78.78;98546.61;1678301;84;21133;-67
2022/02/18 04:28:40;;;;;;;22.20;13.80;;;;;;;14.09;85.81;98558.23;1690053;84;21869;-73
2022/02/18 04:31:08;;;;;;;20.62;13.08;;;;;;;14.16;85.88;98554.11;1690328;84;21125;-64
2022/02/18 04:33:36;;;;;;;21.23;13.08;;;;;;;14.20;85.77;98558.61;1690458;84;21275;-64
2022/02/18 04:36:03;;;;;;;19.12;11.70;;;;;;;14.44;81.83;98557.79;1688435;84;21015;-66
2022/02/18 04:38:30;;;;;;;21.80;12.88;;;;;;;13.91;87.96;98565.14;1682990;83;21010;-74
2022/02/18 04:40:58;;;;;;;26.45;14.43;;;;;;;13.83;91.57;98568.47;1688795;84;21140;-65
2022/02/18 04:43:26;;;;;;;22.27;13.35;;;;;;;13.59;94.47;98570.53;1690676;84;21033;-66
2022/02/18 04:45:53;;;;;;;23.02;12.15;;;;;;;13.77;94.74;98557.66;1691301;84;20999;-64
2022/02/18 04:48:20;;;;;;;27.02;13.30;;;;;;;13.51;97.11;98568.86;1690624;84;20998;-65
2022/02/18 04:50:47;;;;;;;20.52;12.90;;;;;;;13.62;97.37;98562.72;1687695;84;21611;-68
2022/02/18 04:53:13;;;;;;;23.00;13.65;;;;;;;13.70;97.55;98557.56;1684599;84;21152;-69
2022/02/18 04:55:43;;;;;;;25.57;13.70;;;;;;;12.88;100.00;98562.52;1687754;84;21534;-67
2022/02/18 04:58:10;;;;;;;24.95;13.40;;;;;;;12.65;100.00;98559.55;1688241;84;21045;-68
2022/02/18 05:00:36;;;;;;;23.83;13.05;;;;;;;12.82;100.00;98555.61;1686431;83;21681;-70
2022/02/18 05:03:03;;;;;;;21.40;13.35;;;;;;;12.56;100.00;98573.23;1688057;83;21056;-68
2022/02/18 05:05:30;;;;;;;21.62;12.43;;;;;;;12.47;100.00;98574.67;1685237;83;21150;-69
2022/02/18 05:07:57;;;;;;;19.90;13.30;;;;;;;12.35;100.00;98576.83;1649424;84;21021;-69
2022/02/18 05:10:24;;;;;;;22.05;13.48;;;;;;;12.84;100.00;98567.95;1658368;84;21530;-68
2022/02/18 05:12:53;;;;;;;21.87;13.65;;;;;;;12.86;100.00;98573.71;1688351;83;21009;-67
2022/02/18 05:15:22;;;;;;;22.85;12.78;;;;;;;13.05;100.00;98583.41;1685519;83;21562;-66
2022/02/18 05:17:49;;;;;;;20.08;12.95;;;;;;;12.83;100.00;98583.86;1686875;83;21099;-66
2022/02/18 05:20:18;;;;;;;23.40;14.25;;;;;;;12.92;100.00;98583.75;1677615;84;20998;-67
2022/02/18 05:22:45;;;;;;;23.52;13.55;;;;;;;12.99;100.00;98589.58;1687703;83;21069;-72
2022/02/18 05:25:14;;;;;;;20.08;11.70;;;;;;;13.05;100.00;98589.16;1682055;83;21066;-66
2022/02/18 05:27:41;;;;;;;22.82;13.65;;;;;;;13.25;100.00;98589.46;1684070;83;21026;-65
2022/02/18 05:30:09;;;;;;;20.08;12.82;;;;;;;13.07;100.00;98580.56;1684546;83;21818;-65
2022/02/18 05:32:37;;;;;;;20.85;11.88;;;;;;;12.98;100.00;98585.91;1694908;83;21500;-64
2022/02/18 05:35:05;;;;;;;21.12;11.48;;;;;;;12.94;100.00;98584.28;1691542;83;21147;-64
2022/02/18 05:37:33;;;;;;;17.67;11.73;;;;;;;12.98;100.00;98596.38;1684506;83;21046;-72
2022/02/18 05:40:00;;;;;;;19.90;13.22;;;;;;;13.31;100.00;98589.82;1690688;83;21082;-63
2022/02/18 05:42:28;;;;;;;18.15;10.85;;;;;;;13.25;100.00;98590.77;1684298;83;21158;-62
2022/02/18 05:44:55;;;;;;;15.70;10.35;;;;;;;13.19;100.00;98587.80;1678863;83;21396;-63
2022/02/18 05:47:22;;;;;;;17.10;10.45;;;;;;;13.08;100.00;98592.61;1690833;83;21520;-65
2022/02/18 05:49:48;;;;;;;19.45;11.93;;;;;;;13.19;100.00;98593.03;1685129;83;21024;-60
2022/02/18 05:52:15;;;;;;;18.32;11.68;;;;;;;13.48;100.00;98588.98;1672338;83;21146;-62
2022/02/18 05:54:43;;;;;;;19.37;12.93;;;;;;;13.33;100.00;98586.95;1686016;83;21218;-61
2022/02/18 05:57:10;;;;;;;19.87;12.35;;;;;;;13.10;100.00;98589.22;1692098;83;21122;-67
2022/02/18 05:59:37;;;;;;;17.75;11.85;;;;;;;13.21;100.00;98589.64;1684240;83;21097;-69
2022/02/18 06:02:04;;;;;;;20.52;12.30;;;;;;;13.26;100.00;98592.87;1673617;83;22074;-63
2022/02/18 06:04:31;;;;;;;21.40;13.28;;;;;;;13.26;100.00;98596.30;1679103;83;21072;-65
2022/02/18 06:06:58;;;;;;;20.43;12.63;;;;;;;13.23;100.00;98592.03;1678959;83;21145;-64
2022/02/18 06:09:25;;;;;;;20.52;13.43;;;;;;;13.31;100.00;98595.05;1692584;83;21035;-63
2022/02/18 06:11:51;;;;;;;20.12;14.07;;;;;;;13.26;100.00;98604.16;1676894;85;21007;-64
2022/02/18 06:14:18;;;;;;;17.92;12.40;;;;;;;13.22;100.00;98597.78;1680168;83;21081;-65
2022/02/18 06:16:45;;;;;;;20.30;11.88;;;;;;;13.26;100.00;98598.92;1695496;83;21507;-71
2022/02/18 06:19:12;;;;;;;16.02;10.50;;;;;;;12.99;100.00;98603.18;1688037;83;21197;-64
2022/02/18 06:21:40;;;;;;;18.35;11.38;;;;;;;13.19;100.00;98591.72;1678433;83;21007;-70
2022/02/18 06:24:08;;;;;;;18.32;10.05;;;;;;;13.19;100.00;98601.40;1695152;83;21430;-64
2022/02/18 06:26:35;;;;;;;16.93;11.75;;;;;;;12.73;100.00;98604.11;1693548;83;21074;-65
2022/02/18 06:29:02;;;;;;;17.05;10.80;;;;;;;12.56;100.00;98609.83;1693336;83;20966;-63
2022/02/18 06:31:29;;;;;;;17.10;11.30;;;;;;;12.71;100.00;98610.08;1689242;83;21767;-71
2022/02/18 06:33:56;;;;;;;15.10;10.80;;;;;;;12.80;100.00;98614.39;1678356;85;20999;-64
2022/02/18 06:36:22;;;;;;;15.60;11.05;;;;;;;13.06;100.00;98616.38;1693764;83;21148;-64
2022/02/18 06:38:49;;;;;;;18.32;11.10;;;;;;;12.96;100.00;98611.53;1673124;83;20986;-70
2022/02/18 06:41:16;;;;;;;15.23;11.40;;;;;;;13.03;100.00;98617.36;1692410;83;22338;-64
2022/02/18 06:43:43;;;;;;;16.50;10.53;;;;;;;13.32;100.00;98616.25;1692233;83;22189;-65
2022/02/18 06:46:09;;;;;;;14.83;10.00;;;;;;;13.14;100.00;98617.30;1693193;83;21126;-64
2022/02/18 06:48:37;;;;;;;14.47;9.83;;;;;;;13.32;100.00;98622.80;1703377;83;21685;-66
2022/02/18 06:51:05;;;;;;;13.98;10.35;;;;;;;13.36;100.00;98623.90;1701442;83;21008;-66
2022/02/18 06:53:35;;;;;;;13.28;9.08;;;;;;;12.29;100.00;98633.14;1698300;83;21700;-65
2022/02/18 06:56:02;;;;;;;14.65;9.80;;;;;;;12.02;100.00;98630.30;1691263;83;21250;-64
2022/02/18 06:58:29;;;;;;;16.42;10.45;;;;;;;12.94;100.00;98631.36;1684260;83;20951;-64
2022/02/18 07:00:55;;;;;;;25.77;15.08;;;;;;;13.25;100.00;98626.09;1676575;83;21391;-65
2022/02/18 07:03:22;;;;;;;22.20;13.18;;;;;;;13.35;100.00;98628.86;1685069;83;21150;-67
2022/02/18 07:05:49;;;;;;;21.42;17.00;;;;;;;13.33;100.00;98629.64;1682355;83;21035;-65
2022/02/18 07:08:17;;;;;;;15.20;11.10;;;;;;;13.45;100.00;98626.91;1683410;83;21136;-70
2022/02/18 07:10:43;;;;;;;15.30;10.23;;;;;;;13.57;100.00;98634.66;1684507;83;20996;-65
2022/02/18 07:13:12;;;;;;;14.58;9.80;;;;;;;13.59;100.00;98622.11;1693926;82;20912;-64
2022/02/18 07:15:40;;;;;;;16.50;10.58;;;;;;;12.41;100.00;98637.28;1694361;84;20934;-65
2022/02/18 07:18:07;;;;;;;14.80;9.63;;;;;;;12.99;100.00;98634.56;1695054;82;20955;-67
2022/02/18 07:20:34;;;;;;;15.10;9.30;;;;;;;12.17;100.00;98633.19;1692799;82;21082;-63
2022/02/18 07:23:00;;;;;;;17.90;9.73;;;;;;;11.83;100.00;98631.75;1691910;83;21411;-64
2022/02/18 07:25:27;;;;;;;12.82;9.80;;;;;;;12.53;100.00;98628.59;1693995;83;21117;-65
2022/02/18 07:27:54;;;;;;;18.92;12.50;;;;;;;13.08;100.00;98626.09;1693288;83;21077;-65
2022/02/18 07:30:21;;;;;;;13.13;9.50;;;;;;;12.74;100.00;98623.20;1692375;82;21122;-70
2022/02/18 07:32:48;;;;;;;12.35;9.00;;;;;;;13.17;100.00;98616.01;1692525;82;21113;-70
2022/02/18 07:35:14;;;;;;;18.37;13.40;;;;;;;14.00;100.00;98619.98;1685305;83;21627;-65
2022/02/18 07:37:42;;;;;;;15.10;10.28;;;;;;;13.68;100.00;98623.80;1683670;83;21082;-70
2022/02/18 07:40:13;;;;;;;13.72;9.50;;;;;;;13.81;100.00;98621.59;1685275;83;21094;-64
2022/02/18 07:42:42;;;;;;;;;;;;;;;13.98;100.00;98612.88;1694186;83;21640;-72
2022/02/18 07:45:11;;;;;;;13.18;9.38;;;;;;;13.90;100.00;98619.86;1696136;82;21124;-63
2022/02/18 07:47:37;;;;;;;13.88;9.13;;;;;;;13.65;100.00;98630.83;1684929;83;21074;-64
2022/02/18 07:50:05;;;;;;;17.00;11.38;;;;;;;13.62;100.00;98628.17;1697971;82;21094;-64
2022/02/18 07:52:34;;;;;;;15.95;11.00;;;;;;;13.78;100.00;98631.77;1691783;82;21511;-65
2022/02/18 07:55:01;;;;;;;16.12;9.90;;;;;;;13.55;100.00;98634.09;1693106;82;21089;-65
2022/02/18 07:57:28;;;;;;;14.55;9.85;;;;;;;13.69;100.00;98632.72;1693499;82;21542;-63
2022/02/18 07:59:54;;;;;;;17.32;10.98;;;;;;;13.85;100.00;98641.02;1694638;83;21111;-64
2022/02/18 08:02:20;;;;;;;15.30;10.93;;;;;;;13.99;100.00;98639.36;1683569;83;20975;-64
2022/02/18 08:04:48;;;;;;;16.03;11.67;;;;;;;14.23;100.00;98635.95;1669885;83;21066;-71
2022/02/18 08:07:15;;;;;;;16.05;10.30;;;;;;;13.98;100.00;98639.89;1685779;83;21282;-63
2022/02/18 08:09:42;;;;;;;14.85;10.18;;;;;;;14.04;100.00;98635.48;1687554;83;21149;-62
2022/02/18 08:12:09;;;;;;;19.07;11.87;;;;;;;14.21;100.00;98636.20;1689491;83;21478;-63
2022/02/18 08:14:36;;;;;;;19.92;13.20;;;;;;;14.15;100.00;98628.00;1694223;84;21557;-72
2022/02/18 08:17:03;;;;;;;19.52;13.05;;;;;;;14.21;100.00;98619.70;1685561;83;21164;-64
2022/02/18 08:19:30;;;;;;;19.25;11.88;;;;;;;14.10;100.00;98622.72;1691105;83;21087;-66
2022/02/18 08:21:58;;;;;;;16.00;11.33;;;;;;;14.05;100.00;98620.03;1686931;83;21286;-64
2022/02/18 08:24:25;;;;;;;15.23;10.95;;;;;;;13.90;100.00;98625.88;1692696;83;21010;-64
2022/02/18 08:26:52;;;;;;;16.57;11.68;;;;;;;13.57;100.00;98635.97;1704919;82;21094;-73
2022/02/18 08:29:21;;;;;;;17.60;10.98;;;;;;;13.70;100.00;98632.20;1688186;83;21602;-61
2022/02/18 08:31:49;;;;;;;16.37;10.87;;;;;;;14.34;100.00;98633.19;1695099;83;21294;-59
2022/02/18 08:34:16;;;;;;;14.33;10.30;;;;;;;14.34;100.00;98638.95;1688673;83;21328;-62
2022/02/18 08:36:44;;;;;;;15.58;10.63;;;;;;;13.98;100.00;98624.66;1686171;83;21045;-63
2022/02/18 08:39:10;;;;;;;14.63;11.05;;;;;;;13.83;100.00;98626.61;1689191;83;21075;-73
2022/02/18 08:41:38;;;;;;;16.77;11.22;;;;;;;14.34;100.00;98621.39;1687095;83;21193;-67
2022/02/18 08:44:06;;;;;;;16.32;12.45;;;;;;;14.49;100.00;98627.33;1693060;83;21087;-61
2022/02/18 08:46:33;;;;;;;16.32;10.60;;;;;;;13.98;100.00;98633.34;1687498;83;22274;-63
2022/02/18 08:49:03;;;;;;;16.30;11.63;;;;;;;14.44;100.00;98629.09;1687201;83;21145;-67
2022/02/18 08:51:31;;;;;;;16.13;10.63;;;;;;;14.20;100.00;98639.05;1678296;83;21221;-68
2022/02/18 08:53:57;;;;;;;14.75;10.35;;;;;;;14.05;100.00;98629.20;1686012;83;21729;-61
2022/02/18 08:56:28;;;;;;;18.07;12.18;;;;;;;14.11;100.00;98625.61;1676524;83;21684;-62
2022/02/18 08:58:56;;;;;;;15.80;10.58;;;;;;;14.46;100.00;98621.23;1685367;83;21152;-60
2022/02/18 09:01:26;;;;;;;20.27;12.70;;;;;;;14.58;100.00;98619.80;1682213;83;21121;-74
2022/02/18 09:03:53;;;;;;;20.30;13.13;;;;;;;14.28;100.00;98617.16;1694370;83;21467;-64
2022/02/18 09:06:20;;;;;;;17.10;12.30;;;;;;;14.12;100.00;98623.25;1692993;83;21105;-63
2022/02/18 09:08:48;;;;;;;17.57;13.83;;;;;;;14.15;100.00;98630.63;1688870;83;22250;-72
2022/02/18 09:11:15;;;;;;;22.65;16.20;;;;;;;14.21;100.00;98634.89;1690560;83;21332;-77
2022/02/18 09:13:44;;;;;;;24.15;14.47;;;;;;;14.08;100.00;98635.27;1688507;83;21712;-65
2022/02/18 09:16:12;;;;;;;16.97;13.05;;;;;;;13.99;100.00;98635.44;1693026;83;21057;-61
2022/02/18 09:18:42;;;;;;;18.32;12.73;;;;;;;14.04;100.00;98640.20;1687955;83;21077;-63
2022/02/18 09:21:10;;;;;;;17.37;12.40;;;;;;;13.78;100.00;98639.63;1688498;83;21136;-63
2022/02/18 09:23:37;;;;;;;21.03;13.10;;;;;;;13.93;100.00;98629.85;1689824;83;21814;-62
2022/02/18 09:26:04;;;;;;;23.38;14.05;;;;;;;14.31;100.00;98632.36;1691634;83;22392;-64
2022/02/18 09:28:30;;;;;;;22.65;14.53;;;;;;;13.33;100.00;98634.88;1691090;83;21568;-73
2022/02/18 09:30:56;;;;;;;18.00;11.57;;;;;;;13.22;100.00;98628.36;1691432;83;21125;-61
2022/02/18 09:33:23;;;;;;;18.23;11.97;;;;;;;13.18;100.00;98622.81;1682560;83;21296;-73
2022/02/18 09:35:50;;;;;;;19.00;13.53;;;;;;;13.25;100.00;98626.09;1678629;83;21791;-61
2022/02/18 09:38:16;;;;;;;20.37;14.13;;;;;;;13.45;100.00;98626.09;1679515;83;21900;-60
2022/02/18 09:40:44;;;;;;;21.77;14.40;;;;;;;13.44;100.00;98629.23;1675636;83;21306;-61
2022/02/18 09:43:10;;;;;;;19.63;11.83;;;;;;;13.81;100.00;98633.38;1680161;83;21194;-68
2022/02/18 09:45:38;;;;;;;23.27;13.20;;;;;;;13.73;100.00;98630.41;1681972;83;21233;-63
2022/02/18 09:48:07;;;;;;;22.27;14.47;;;;;;;14.01;100.00;98629.41;1680576;83;21178;-62
2022/02/18 09:50:34;;;;;;;22.43;14.73;;;;;;;14.24;100.00;98634.38;1679663;83;21283;-61
2022/02/18 09:53:01;;;;;;;23.20;14.80;;;;;;;14.23;100.00;98643.29;1681953;83;21339;-70
2022/02/18 09:55:28;;;;;;;22.70;13.83;;;;;;;14.56;100.00;98636.31;1691108;83;21308;-62
2022/02/18 09:57:56;;;;;;;25.53;15.33;;;;;;;14.63;100.00;98635.59;1693058;83;21300;-70
2022/02/18 10:00:23;;;;;;;30.20;17.17;;;;;;;14.53;100.00;98639.42;1692469;83;21453;-72
2022/02/18 10:02:50;;;;;;;28.87;17.43;;;;;;;14.61;100.00;98638.97;1696896;83;21087;-62
2022/02/18 10:05:17;;;;;;;33.50;17.30;;;;;;;14.51;100.00;98637.59;1688916;83;21239;-63
2022/02/18 10:08:09;;;;;;;28.73;17.33;;;;;;;14.45;100.00;98635.91;1692629;83;21210;-60
2022/02/18 10:10:42;;;;;;;31.00;19.20;;;;;;;14.06;100.00;98639.97;1700765;83;21099;-61
2022/02/18 10:13:32;;;;;;;40.43;23.25;;;;;;;13.72;100.00;98644.02;1644356;85;21662;-60
2022/02/18 10:15:59;;;;;;;29.77;18.20;;;;;;;14.34;100.00;98641.56;1653401;85;21059;-66
2022/02/18 10:18:26;;;;;;;35.20;18.40;;;;;;;14.02;100.00;98644.13;1687095;83;21721;-64
2022/02/18 10:20:54;;;;;;;31.50;20.07;;;;;;;14.08;100.00;98653.08;1620988;87;47632;-62
2022/02/18 10:23:22;;;;;;;29.10;19.50;;;;;;;13.82;100.00;98646.75;1685263;83;21239;-60
2022/02/18 10:25:52;;;;;;;30.50;20.13;;;;;;;14.24;100.00;98650.63;1685227;83;21309;-71
2022/02/18 10:28:21;;;;;;;30.20;18.97;;;;;;;13.46;100.00;98649.95;1688072;83;21339;-74
2022/02/18 10:30:49;;;;;;;29.47;18.67;;;;;;;13.48;100.00;98655.20;1687123;83;21412;-60
2022/02/18 10:33:20;;;;;;;35.73;21.30;;;;;;;13.59;100.00;98657.45;1657195;83;21257;-61
2022/02/18 10:35:49;;;;;;;31.70;21.87;;;;;;;14.06;100.00;98666.17;1685576;83;22301;-65
2022/02/18 10:38:16;;;;;;;31.27;20.33;;;;;;;14.17;100.00;98670.98;1685274;83;21780;-71
2022/02/18 10:40:46;;;;;;;30.17;19.63;;;;;;;14.18;100.00;98674.69;1689835;83;21924;-59
2022/02/18 10:43:25;;;;;;;29.20;19.87;;;;;;;14.04;100.00;98682.12;1685862;83;21246;-64
2022/02/18 10:46:02;;;;;;;34.37;19.80;;;;;;;14.31;100.00;98680.85;1688301;83;21231;-59
2022/02/18 10:48:32;;;;;;;35.30;20.93;;;;;;;14.52;100.00;98676.66;1685941;83;21364;-61
2022/02/18 10:51:09;;;;;;;29.67;18.90;;;;;;;14.16;100.00;98687.23;1681917;83;21368;-62
2022/02/18 10:53:39;;;;;;;26.90;17.93;;;;;;;14.29;100.00;98690.80;1674655;83;21433;-66
2022/02/18 10:56:06;;;;;;;29.50;19.40;;;;;;;14.64;100.00;98689.62;1703011;83;21231;-68
2022/02/18 10:58:37;;;;;;;32.70;20.33;;;;;;;14.59;100.00;98688.27;1684855;83;22755;-61
2022/02/18 11:01:16;;;;;;;31.10;20.93;;;;;;;14.62;100.00;98689.58;1686116;83;21144;-62
2022/02/18 11:03:55;;;;;;;27.80;18.43;;;;;;;14.20;100.00;98694.88;1686146;83;21575;-77
2022/02/18 11:06:27;;;;;;;29.10;19.90;;;;;;;14.42;100.00;98694.86;1687453;83;21287;-59
2022/02/18 11:09:03;;;;;;;32.48;20.70;;;;;;;14.42;100.00;98692.77;1692669;83;29818;-59
2022/02/18 11:11:39;;;;;;;28.83;20.13;;;;;;;14.41;100.00;98694.60;1689394;83;21089;-75
2022/02/18 11:14:10;;;;;;;28.30;20.33;;;;;;;14.39;100.00;98702.42;1687986;83;21687;-71
2022/02/18 11:16:52;;;;;;;34.00;19.77;;;;;;;14.15;100.00;98700.59;1704415;83;21998;-63
2022/02/18 11:19:16;;;;;;;31.70;21.03;;;;;;;14.80;100.00;98701.04;1698491;83;21288;-60